Time;durP1;ratioP1;P1;durP2;ratioP2;P2;SDS_P1;SDS_P2;PMS_P1;PMS_P2;Temp;Humidity;BMP_temperature;BMP_pressure;BME280_temperature;BME280_humidity;BME280_pressure;Samples;Min_cycle;Max_cycle;Signal;HPM_P1;HPM_P2
2023/09/20 00:00:21;;;;;;;8.65;2.42;;;20.40;99.90;;;;;;5013714;28;20018;-72
2023/09/20 00:02:50;;;;;;;9.05;2.10;;;20.40;99.90;;;;;;5013460;28;20476;-66
2023/09/20 00:05:17;;;;;;;10.68;2.70;;;20.40;99.90;;;;;;5013299;28;20026;-70
2023/09/20 00:07:43;;;;;;;6.35;2.28;;;20.30;99.90;;;;;;5013223;28;20032;-75
2023/09/20 00:10:14;;;;;;;9.30;2.40;;;20.30;99.90;;;;;;5012139;28;20046;-68
2023/09/20 00:12:40;;;;;;;6.38;2.42;;;20.30;99.90;;;;;;5013407;28;20029;-66
2023/09/20 00:15:07;;;;;;;6.80;2.10;;;20.30;99.90;;;;;;5013418;28;20022;-77
2023/09/20 00:17:34;;;;;;;7.60;2.53;;;20.30;99.90;;;;;;5013365;28;20034;-67
2023/09/20 00:20:13;;;;;;;6.82;2.40;;;20.30;99.90;;;;;;5013296;28;20041;-68
2023/09/20 00:22:41;;;;;;;6.20;2.13;;;20.40;99.90;;;;;;5013397;28;20026;-67
2023/09/20 00:25:15;;;;;;;5.35;2.25;;;20.30;99.90;;;;;;5013071;28;20068;-67
2023/09/20 00:27:45;;;;;;;6.93;2.67;;;20.40;99.90;;;;;;5013186;28;20418;-76
2023/09/20 00:30:14;;;;;;;6.95;2.53;;;20.40;99.90;;;;;;5013392;28;20025;-67
2023/09/20 00:32:42;;;;;;;8.13;2.83;;;20.30;99.90;;;;;;5012960;28;20486;-67
2023/09/20 00:35:13;;;;;;;7.90;2.30;;;20.30;99.90;;;;;;5013319;28;20498;-67
2023/09/20 00:37:44;;;;;;;10.68;2.58;;;20.30;99.90;;;;;;5013222;28;20395;-67
2023/09/20 00:40:15;;;;;;;5.43;2.05;;;20.30;99.90;;;;;;5013098;28;20018;-68
2023/09/20 00:42:42;;;;;;;11.82;2.78;;;20.30;99.90;;;;;;5013025;28;20034;-67
2023/09/20 00:45:09;;;;;;;7.63;2.75;;;20.30;99.90;;;;;;5013117;28;20087;-69
2023/09/20 00:47:40;;;;;;;9.18;2.70;;;20.40;99.90;;;;;;5013038;28;20017;-67
2023/09/20 00:50:08;;;;;;;9.27;2.70;;;20.40;99.90;;;;;;5013155;28;20025;-67
2023/09/20 00:52:34;;;;;;;8.50;2.67;;;20.30;99.90;;;;;;5012915;28;20030;-66
2023/09/20 00:54:59;;;;;;;9.27;2.60;;;20.40;99.90;;;;;;5012972;28;20026;-67
2023/09/20 00:57:25;;;;;;;9.82;2.50;;;20.30;99.90;;;;;;5012976;28;20029;-68
2023/09/20 00:59:51;;;;;;;6.72;3.35;;;20.40;99.90;;;;;;5012876;28;20025;-67
2023/09/20 01:02:18;;;;;;;7.05;2.40;;;20.40;99.90;;;;;;5011777;28;20045;-74
2023/09/20 01:04:45;;;;;;;5.57;2.08;;;20.30;99.90;;;;;;5014647;28;20040;-75
2023/09/20 01:07:11;;;;;;;7.80;2.28;;;20.40;99.90;;;;;;5016294;28;20046;-68
2023/09/20 01:09:37;;;;;;;5.57;2.30;;;20.40;99.90;;;;;;5016621;28;20414;-67
2023/09/20 01:12:05;;;;;;;11.10;2.60;;;20.40;99.90;;;;;;5016772;28;20033;-68
2023/09/20 01:14:31;;;;;;;8.00;2.40;;;20.30;99.90;;;;;;5016547;28;20018;-67
2023/09/20 01:16:56;;;;;;;7.85;2.97;;;20.30;99.90;;;;;;5016623;28;20133;-68
2023/09/20 01:19:22;;;;;;;10.55;2.78;;;20.30;99.90;;;;;;5016288;28;20026;-67
2023/09/20 01:21:47;;;;;;;5.80;2.22;;;20.30;99.90;;;;;;5016117;28;20079;-68
2023/09/20 01:24:14;;;;;;;7.97;2.70;;;20.30;99.90;;;;;;5016410;28;20371;-67
2023/09/20 01:26:42;;;;;;;8.40;2.25;;;20.30;99.90;;;;;;5016240;28;20033;-67
2023/09/20 01:29:08;;;;;;;6.22;1.85;;;20.30;99.90;;;;;;5016284;28;20391;-67
2023/09/20 01:31:36;;;;;;;5.25;1.92;;;20.30;99.90;;;;;;5016269;28;20022;-67
2023/09/20 01:34:02;;;;;;;8.50;2.38;;;20.30;99.90;;;;;;5015952;28;20026;-68
2023/09/20 01:36:28;;;;;;;10.63;2.58;;;20.30;99.90;;;;;;5016070;28;20041;-67
2023/09/20 01:38:54;;;;;;;6.90;2.30;;;20.30;99.90;;;;;;5015930;28;20022;-67
2023/09/20 01:41:20;;;;;;;9.00;2.22;;;20.30;99.90;;;;;;5016072;28;20088;-67
2023/09/20 01:43:45;;;;;;;4.75;2.15;;;20.20;99.90;;;;;;5015777;28;20118;-67
2023/09/20 01:46:11;;;;;;;6.22;2.50;;;20.30;99.90;;;;;;5015901;28;20036;-68
2023/09/20 01:48:37;;;;;;;7.57;2.40;;;20.30;99.90;;;;;;5015981;28;20014;-69
2023/09/20 01:51:03;;;;;;;7.68;2.00;;;20.20;99.90;;;;;;5015718;28;20113;-67
2023/09/20 01:53:29;;;;;;;7.13;2.40;;;20.20;99.90;;;;;;5015830;28;20473;-67
2023/09/20 01:55:57;;;;;;;5.68;2.45;;;20.20;99.90;;;;;;5015728;28;20505;-71
2023/09/20 01:58:23;;;;;;;7.93;2.08;;;20.20;99.90;;;;;;5014474;28;20380;-68
2023/09/20 02:00:50;;;;;;;10.00;3.33;;;20.20;99.90;;;;;;5015798;28;20109;-67
2023/09/20 02:03:18;;;;;;;7.15;2.47;;;20.20;99.90;;;;;;5015560;28;20061;-67
2023/09/20 02:05:47;;;;;;;9.10;2.42;;;20.20;99.90;;;;;;5015240;28;20044;-67
2023/09/20 02:08:13;;;;;;;5.05;2.20;;;20.20;99.90;;;;;;5015534;28;20034;-66
2023/09/20 02:10:40;;;;;;;5.63;2.03;;;20.20;99.90;;;;;;5015371;28;20104;-66
2023/09/20 02:13:06;;;;;;;7.72;2.63;;;20.10;99.90;;;;;;5015467;28;20124;-67
2023/09/20 02:15:36;;;;;;;7.15;2.08;;;20.10;99.90;;;;;;5015058;28;20072;-68
2023/09/20 02:18:05;;;;;;;7.53;2.55;;;20.10;99.90;;;;;;5015407;28;20022;-67
2023/09/20 02:20:36;;;;;;;7.20;2.55;;;20.10;99.90;;;;;;5014993;28;20029;-67
2023/09/20 02:23:03;;;;;;;9.88;2.67;;;20.10;99.90;;;;;;5015299;28;20021;-66
2023/09/20 02:25:29;;;;;;;7.28;2.45;;;20.10;99.90;;;;;;5015148;28;20491;-67
2023/09/20 02:27:59;;;;;;;7.25;2.45;;;20.10;99.90;;;;;;5015419;28;20387;-67
2023/09/20 02:30:35;;;;;;;6.85;2.58;;;20.00;99.90;;;;;;5015010;28;20375;-76
2023/09/20 02:33:05;;;;;;;6.55;2.50;;;20.00;99.90;;;;;;5015073;28;20373;-67
2023/09/20 02:35:32;;;;;;;7.47;2.95;;;20.00;99.90;;;;;;5015043;28;20058;-76
2023/09/20 02:37:59;;;;;;;8.55;3.33;;;20.00;99.90;;;;;;5015002;28;20357;-67
2023/09/20 02:40:26;;;;;;;6.88;2.38;;;19.90;99.90;;;;;;5014904;28;20018;-75
2023/09/20 02:42:59;;;;;;;5.78;2.13;;;20.00;99.90;;;;;;5015055;28;20018;-67
2023/09/20 02:45:28;;;;;;;8.57;3.08;;;19.90;99.90;;;;;;5014712;28;20026;-67
2023/09/20 02:47:55;;;;;;;6.63;2.20;;;20.00;99.90;;;;;;5014962;28;20052;-68
2023/09/20 02:50:25;;;;;;;9.18;2.35;;;19.90;99.90;;;;;;5014402;28;20029;-68
2023/09/20 02:52:52;;;;;;;8.02;2.10;;;19.90;99.90;;;;;;5014643;28;20026;-67
2023/09/20 02:55:21;;;;;;;8.27;2.80;;;19.90;99.90;;;;;;5014768;28;20018;-70
2023/09/20 02:57:52;;;;;;;6.72;2.30;;;19.90;99.90;;;;;;5014677;28;20057;-67
2023/09/20 03:00:31;;;;;;;5.43;2.00;;;20.00;99.90;;;;;;5014386;28;20084;-73
2023/09/20 03:03:00;;;;;;;8.73;2.90;;;20.00;99.90;;;;;;5014588;28;20079;-67
2023/09/20 03:05:31;;;;;;;6.45;2.55;;;19.90;99.90;;;;;;5013810;28;20558;-67
2023/09/20 03:07:57;;;;;;;7.30;2.53;;;19.90;99.90;;;;;;5013306;28;20049;-67
2023/09/20 03:10:24;;;;;;;8.45;2.50;;;19.90;99.90;;;;;;5014260;28;20018;-67
2023/09/20 03:12:52;;;;;;;7.45;2.80;;;19.90;99.90;;;;;;5014330;28;20026;-67
2023/09/20 03:15:21;;;;;;;4.80;2.30;;;19.90;99.90;;;;;;5014307;28;20422;-68
2023/09/20 03:17:52;;;;;;;5.93;2.03;;;19.90;99.90;;;;;;5014130;28;20185;-66
2023/09/20 03:20:25;;;;;;;6.40;2.50;;;19.90;99.90;;;;;;5014215;28;20026;-67
2023/09/20 03:22:55;;;;;;;7.20;2.28;;;19.80;99.90;;;;;;5014092;28;20022;-76
2023/09/20 03:25:22;;;;;;;10.10;3.25;;;19.80;99.90;;;;;;5014119;28;20025;-67
2023/09/20 03:27:51;;;;;;;6.20;2.28;;;19.80;99.90;;;;;;5013410;28;20068;-68
2023/09/20 03:30:20;;;;;;;6.72;2.38;;;19.80;99.90;;;;;;5014122;28;20071;-67
2023/09/20 03:32:49;;;;;;;9.02;2.65;;;19.80;99.90;;;;;;5013662;28;20471;-76
2023/09/20 03:35:16;;;;;;;7.00;2.35;;;19.70;99.90;;;;;;5011393;28;20085;-67
2023/09/20 03:37:43;;;;;;;10.07;2.55;;;19.80;99.90;;;;;;5004503;28;20060;-76
2023/09/20 03:40:11;;;;;;;4.22;2.22;;;19.70;99.90;;;;;;5013651;28;20021;-67
2023/09/20 03:42:40;;;;;;;6.88;2.63;;;19.70;99.90;;;;;;5013452;28;20498;-67
2023/09/20 03:45:10;;;;;;;7.38;2.78;;;19.60;99.90;;;;;;5013492;28;20022;-67
2023/09/20 03:47:37;;;;;;;8.93;2.45;;;19.70;99.90;;;;;;5013299;28;20034;-67
2023/09/20 03:50:03;;;;;;;7.30;2.15;;;19.60;99.90;;;;;;5013892;28;20025;-67
2023/09/20 03:52:29;;;;;;;6.40;2.47;;;19.60;99.90;;;;;;5013560;28;20087;-67
2023/09/20 03:54:55;;;;;;;7.78;2.78;;;19.50;99.90;;;;;;5012384;28;20624;-67
2023/09/20 03:57:24;;;;;;;9.13;2.78;;;19.60;99.90;;;;;;5013494;28;20033;-68
2023/09/20 03:59:51;;;;;;;6.28;2.50;;;19.50;99.90;;;;;;5013669;28;20029;-69
2023/09/20 04:02:17;;;;;;;6.47;2.08;;;19.60;99.90;;;;;;5013223;28;20025;-67
2023/09/20 04:04:43;;;;;;;6.75;2.35;;;19.60;99.90;;;;;;5013437;28;20461;-67
2023/09/20 04:07:08;;;;;;;8.00;2.80;;;19.50;99.90;;;;;;5013384;28;20053;-67
2023/09/20 04:09:35;;;;;;;5.30;2.30;;;19.60;99.90;;;;;;5013432;28;20468;-67
2023/09/20 04:12:03;;;;;;;6.55;2.58;;;19.50;99.90;;;;;;5013562;28;20468;-68
2023/09/20 04:14:28;;;;;;;6.13;2.03;;;19.50;99.90;;;;;;5012133;28;20549;-67
2023/09/20 04:16:54;;;;;;;6.18;2.42;;;19.50;99.90;;;;;;5012969;28;20022;-67
2023/09/20 04:19:21;;;;;;;8.45;2.42;;;19.50;99.90;;;;;;5013425;28;20375;-68
2023/09/20 04:21:47;;;;;;;6.05;2.58;;;19.50;99.90;;;;;;5013383;28;20026;-67
2023/09/20 04:24:13;;;;;;;6.70;2.63;;;19.50;99.90;;;;;;5013350;28;20029;-67
2023/09/20 04:26:39;;;;;;;7.38;3.03;;;19.40;99.90;;;;;;5012980;28;20041;-69
2023/09/20 04:29:05;;;;;;;7.03;2.25;;;19.50;99.90;;;;;;5013383;28;20066;-68
2023/09/20 04:31:33;;;;;;;8.63;2.72;;;19.50;99.90;;;;;;5012928;28;20076;-68
2023/09/20 04:34:01;;;;;;;5.43;2.17;;;19.40;99.90;;;;;;5013129;28;20070;-67
2023/09/20 04:36:27;;;;;;;5.47;2.55;;;19.40;99.90;;;;;;5013226;28;20030;-76
2023/09/20 04:38:53;;;;;;;6.47;2.38;;;19.40;99.90;;;;;;5015481;28;20033;-67
2023/09/20 04:41:19;;;;;;;7.68;2.10;;;19.40;99.90;;;;;;5017260;28;20113;-76
2023/09/20 04:43:44;;;;;;;4.93;2.40;;;19.40;99.90;;;;;;5017029;28;20029;-69
2023/09/20 04:46:10;;;;;;;6.68;2.05;;;19.40;99.90;;;;;;5016784;28;20069;-67
2023/09/20 04:48:39;;;;;;;6.35;2.20;;;19.50;99.90;;;;;;5016902;28;20026;-66
2023/09/20 04:51:05;;;;;;;7.63;2.50;;;19.40;99.90;;;;;;5016987;28;20022;-76
2023/09/20 04:53:33;;;;;;;6.68;2.20;;;19.50;99.90;;;;;;5016904;28;20030;-67
2023/09/20 04:55:59;;;;;;;6.65;1.92;;;19.40;99.90;;;;;;5016950;28;20541;-68
2023/09/20 04:58:25;;;;;;;4.80;2.08;;;19.40;99.90;;;;;;5016982;28;20460;-67
2023/09/20 05:00:51;;;;;;;6.15;2.15;;;19.40;99.90;;;;;;5016341;28;20096;-74
2023/09/20 05:03:17;;;;;;;4.47;1.70;;;19.40;99.90;;;;;;5016624;28;20371;-68
2023/09/20 05:05:44;;;;;;;5.78;2.15;;;19.30;99.90;;;;;;5016238;28;20121;-74
2023/09/20 05:08:10;;;;;;;14.25;2.80;;;19.40;99.90;;;;;;5014332;28;20394;-76
2023/09/20 05:10:35;;;;;;;7.47;1.90;;;19.40;99.90;;;;;;5016593;28;20014;-68
2023/09/20 05:13:01;;;;;;;7.45;2.40;;;19.50;99.90;;;;;;5016426;28;20030;-77
2023/09/20 05:15:27;;;;;;;6.13;1.95;;;19.50;99.90;;;;;;5016505;28;20072;-72
2023/09/20 05:17:52;;;;;;;7.30;2.13;;;19.50;99.90;;;;;;5016436;28;20545;-67
2023/09/20 05:20:18;;;;;;;7.22;1.92;;;19.50;99.90;;;;;;5016439;28;20026;-75
2023/09/20 05:22:44;;;;;;;9.60;2.63;;;19.50;99.90;;;;;;5014247;28;20036;-76
2023/09/20 05:25:10;;;;;;;8.48;2.25;;;19.50;99.90;;;;;;5009591;28;20041;-74
2023/09/20 05:27:36;;;;;;;5.53;2.10;;;19.40;99.90;;;;;;5015701;28;20038;-67
2023/09/20 05:30:03;;;;;;;4.25;2.05;;;19.50;99.90;;;;;;5015885;28;20018;-67
2023/09/20 05:32:28;;;;;;;5.72;1.77;;;19.60;99.90;;;;;;5016218;28;20022;-76
2023/09/20 05:34:55;;;;;;;4.43;1.77;;;19.60;99.90;;;;;;5016090;28;20032;-68
2023/09/20 05:37:21;;;;;;;4.22;1.58;;;19.60;99.90;;;;;;5003924;28;20018;-74
2023/09/20 05:39:48;;;;;;;6.72;2.05;;;19.70;99.90;;;;;;4999658;28;20024;-75
2023/09/20 05:42:15;;;;;;;9.07;2.35;;;19.70;99.90;;;;;;5015307;28;20113;-67
2023/09/20 05:44:40;;;;;;;5.90;2.08;;;19.70;99.90;;;;;;5008463;28;20018;-73
2023/09/20 05:47:09;;;;;;;10.43;2.55;;;19.70;99.90;;;;;;5001203;28;20038;-67
2023/09/20 05:49:35;;;;;;;8.35;2.30;;;19.70;99.90;;;;;;5006647;28;20093;-68
2023/09/20 05:52:05;;;;;;;8.63;2.65;;;19.60;99.90;;;;;;5005026;28;20121;-70
2023/09/20 05:54:31;;;;;;;5.65;2.78;;;19.70;99.90;;;;;;5009525;28;20018;-74
2023/09/20 05:56:59;;;;;;;5.63;2.03;;;19.70;99.90;;;;;;5010612;28;20040;-76
2023/09/20 05:59:25;;;;;;;4.85;1.98;;;19.60;99.90;;;;;;5014573;28;20026;-66
2023/09/20 06:01:51;;;;;;;7.97;2.70;;;19.70;99.90;;;;;;5015295;28;20025;-70
2023/09/20 06:04:18;;;;;;;8.25;2.97;;;19.80;99.90;;;;;;5004726;28;20038;-73
2023/09/20 06:06:44;;;;;;;6.47;2.47;;;19.80;99.90;;;;;;5005408;28;20076;-67
2023/09/20 06:09:10;;;;;;;6.55;2.65;;;19.80;99.90;;;;;;5003798;28;20046;-68
2023/09/20 06:11:36;;;;;;;6.85;2.65;;;19.90;99.90;;;;;;5003796;28;20496;-69
2023/09/20 06:14:01;;;;;;;5.40;2.25;;;19.80;99.90;;;;;;4995082;28;20034;-66
2023/09/20 06:16:27;;;;;;;8.60;2.35;;;19.70;99.90;;;;;;4994825;28;20049;-68
2023/09/20 06:18:52;;;;;;;6.10;2.33;;;19.70;99.90;;;;;;5005889;28;20084;-70
2023/09/20 06:21:18;;;;;;;7.65;2.92;;;19.70;99.90;;;;;;5013080;28;20037;-69
2023/09/20 06:23:44;;;;;;;7.80;2.70;;;19.60;99.90;;;;;;4997873;28;20038;-71
2023/09/20 06:26:12;;;;;;;7.65;2.58;;;19.70;99.90;;;;;;5000607;28;20038;-73
2023/09/20 06:28:41;;;;;;;6.55;2.72;;;19.60;99.90;;;;;;5001454;28;20061;-73
2023/09/20 06:31:13;;;;;;;8.05;3.45;;;19.70;99.90;;;;;;5008495;28;20021;-68
2023/09/20 06:33:40;;;;;;;9.25;2.78;;;19.70;99.90;;;;;;5003420;28;20035;-64
2023/09/20 06:36:06;;;;;;;6.75;2.28;;;19.60;99.90;;;;;;4998038;28;20076;-66
2023/09/20 06:38:34;;;;;;;5.93;2.30;;;19.70;99.90;;;;;;5005066;28;20475;-66
2023/09/20 06:41:00;;;;;;;7.28;2.88;;;19.70;99.90;;;;;;5009835;28;20117;-74
2023/09/20 06:43:26;;;;;;;6.65;2.58;;;19.60;99.90;;;;;;4998409;28;20105;-73
2023/09/20 06:45:52;;;;;;;6.82;2.58;;;19.70;99.90;;;;;;5009350;28;20065;-74
2023/09/20 06:48:22;;;;;;;12.02;3.10;;;19.70;99.90;;;;;;5005743;28;20076;-70
2023/09/20 06:50:55;;;;;;;6.43;2.50;;;19.70;99.90;;;;;;5009879;28;20480;-64
2023/09/20 06:53:23;;;;;;;;;;;19.80;99.90;;;;;;4996371;28;20484;-73
2023/09/20 06:55:49;;;;;;;5.97;2.38;;;19.70;99.90;;;;;;5012091;28;19945;-71
2023/09/20 06:58:15;;;;;;;9.60;2.38;;;19.70;99.90;;;;;;5003314;28;20030;-67
2023/09/20 07:00:41;;;;;;;10.82;2.85;;;19.70;99.90;;;;;;5006556;28;20356;-67
2023/09/20 07:03:08;;;;;;;8.35;2.88;;;19.80;99.90;;;;;;5011249;28;20113;-67
2023/09/20 07:05:34;;;;;;;8.18;2.67;;;19.90;99.90;;;;;;4997115;28;20085;-68
2023/09/20 07:08:00;;;;;;;4.63;2.13;;;19.90;99.90;;;;;;5003259;28;20030;-69
2023/09/20 07:10:28;;;;;;;7.40;2.33;;;19.90;99.90;;;;;;5011948;28;20075;-69
2023/09/20 07:12:54;;;;;;;8.98;2.65;;;19.90;99.90;;;;;;5012978;28;20071;-67
2023/09/20 07:15:21;;;;;;;8.35;2.10;;;19.90;99.90;;;;;;5013712;28;20038;-74
2023/09/20 07:17:58;;;;;;;5.80;2.72;;;20.00;99.90;;;;;;5001263;28;20038;-68
2023/09/20 07:20:28;;;;;;;4.43;2.28;;;20.00;99.90;;;;;;4999450;28;20040;-71
2023/09/20 07:22:54;;;;;;;6.88;2.30;;;20.00;99.90;;;;;;4999027;28;20034;-70
2023/09/20 07:25:21;;;;;;;6.28;2.35;;;20.00;99.90;;;;;;5010428;28;20025;-78
2023/09/20 07:27:48;;;;;;;6.78;2.28;;;20.00;99.90;;;;;;5007962;28;20034;-69
2023/09/20 07:30:21;;;;;;;8.93;2.88;;;20.00;99.90;;;;;;5001600;28;20018;-70
2023/09/20 07:32:48;;;;;;;9.45;2.40;;;20.00;99.90;;;;;;4994455;28;20088;-69
2023/09/20 07:35:26;;;;;;;12.35;2.22;;;20.10;99.90;;;;;;5007160;28;20105;-72
2023/09/20 07:37:57;;;;;;;4.13;2.08;;;20.00;99.90;;;;;;5010521;28;20030;-71
2023/09/20 07:40:35;;;;;;;7.65;2.35;;;20.10;99.90;;;;;;5002122;28;20014;-71
2023/09/20 07:43:04;;;;;;;6.32;2.30;;;20.10;99.90;;;;;;5003661;28;20030;-71
2023/09/20 07:45:41;;;;;;;8.88;2.55;;;20.10;99.90;;;;;;5013772;28;20510;-74
2023/09/20 07:48:16;;;;;;;6.65;2.25;;;20.20;99.90;;;;;;4993994;28;20026;-71
2023/09/20 07:50:49;;;;;;;6.25;2.40;;;20.20;99.90;;;;;;4993277;28;20030;-72
2023/09/20 07:53:16;;;;;;;5.30;2.45;;;20.20;99.90;;;;;;5010664;28;20037;-72
2023/09/20 07:55:44;;;;;;;6.40;2.50;;;20.20;99.90;;;;;;5013686;28;20069;-74
2023/09/20 07:58:11;;;;;;;9.38;2.30;;;20.20;99.90;;;;;;5002686;28;20483;-72
2023/09/20 08:00:48;;;;;;;5.30;1.98;;;20.40;99.90;;;;;;5013629;28;20022;-74
2023/09/20 08:03:14;;;;;;;13.32;3.53;;;20.60;99.90;;;;;;5013335;28;20061;-71
2023/09/20 08:05:41;;;;;;;4.63;1.83;;;20.60;99.90;;;;;;5024878;28;20577;-71
2023/09/20 08:08:08;;;;;;;7.90;2.00;;;20.80;99.90;;;;;;4993476;28;20053;-72
2023/09/20 08:10:35;;;;;;;7.10;2.13;;;20.90;99.90;;;;;;5000228;28;20225;-71
2023/09/20 08:13:03;;;;;;;5.05;1.90;;;20.90;99.90;;;;;;5008608;28;20054;-71
2023/09/20 08:15:30;;;;;;;5.97;2.05;;;21.00;99.90;;;;;;5006465;28;20057;-71
2023/09/20 08:20:42;;;;;;;4.20;2.17;;;21.10;99.90;;;;;;5012535;28;20502;-72
2023/09/20 09:01:40;;;;;;;5.07;2.00;;;21.30;99.90;;;;;;5011201;28;20032;-72
2023/09/20 09:04:09;;;;;;;5.13;2.35;;;21.30;99.90;;;;;;5007332;28;20548;-73
2023/09/20 09:06:36;;;;;;;3.28;1.63;;;21.30;99.90;;;;;;4997617;28;20034;-73
2023/09/20 09:09:02;;;;;;;3.55;2.08;;;21.50;99.90;;;;;;5022799;28;20053;-72
2023/09/20 09:11:28;;;;;;;7.22;2.05;;;21.50;99.90;;;;;;5012956;28;20124;-73
2023/09/20 09:14:00;;;;;;;3.75;1.73;;;21.50;99.90;;;;;;5006527;28;20459;-73
2023/09/20 09:16:30;;;;;;;6.00;1.83;;;21.50;99.90;;;;;;4992828;28;20105;-76
2023/09/20 09:18:56;;;;;;;4.03;1.63;;;21.50;99.90;;;;;;4994062;28;20029;-75
2023/09/20 09:21:22;;;;;;;3.58;1.60;;;21.60;99.90;;;;;;4993504;28;20022;-70
2023/09/20 09:23:48;;;;;;;3.90;1.77;;;21.60;99.90;;;;;;4993514;28;20042;-71
2023/09/20 09:26:16;;;;;;;3.67;1.48;;;21.50;99.90;;;;;;5003292;28;20490;-76
2023/09/20 09:28:42;;;;;;;5.40;2.05;;;21.60;99.90;;;;;;5009025;28;20080;-70
2023/09/20 09:31:08;;;;;;;3.72;1.98;;;21.50;99.90;;;;;;5008543;28;20025;-71
2023/09/20 09:33:37;;;;;;;5.07;1.88;;;21.50;99.90;;;;;;5012220;28;20069;-77
2023/09/20 09:36:04;;;;;;;3.17;1.30;;;21.50;99.90;;;;;;5014582;28;20040;-71
2023/09/20 09:38:33;;;;;;;7.18;2.05;;;21.70;99.90;;;;;;5015205;28;20026;-80
2023/09/20 09:40:59;;;;;;;4.70;1.70;;;21.80;99.90;;;;;;5015511;28;20034;-74
2023/09/20 09:43:32;;;;;;;3.28;1.77;;;21.80;99.90;;;;;;5015707;28;20095;-70
2023/09/20 09:46:06;;;;;;;4.68;1.85;;;21.70;99.90;;;;;;5015752;28;20484;-70
2023/09/20 09:48:42;;;;;;;3.50;1.85;;;21.60;99.90;;;;;;5015916;28;20018;-71
2023/09/20 09:51:09;;;;;;;4.97;2.00;;;21.70;99.90;;;;;;5011439;28;20026;-69
2023/09/20 09:53:39;;;;;;;4.75;2.25;;;21.70;99.90;;;;;;5003738;28;20073;-70
2023/09/20 09:56:06;;;;;;;6.53;2.10;;;21.70;99.90;;;;;;5015603;28;20032;-71
2023/09/20 09:58:32;;;;;;;3.00;1.27;;;21.60;99.90;;;;;;5015369;28;20022;-70
2023/09/20 10:01:03;;;;;;;4.55;2.03;;;21.50;99.90;;;;;;5001897;28;20053;-82
2023/09/20 10:03:32;;;;;;;5.97;2.17;;;21.50;99.90;;;;;;5014924;28;20487;-71
2023/09/20 10:06:09;;;;;;;5.63;2.33;;;21.60;99.90;;;;;;5014229;28;20030;-71
2023/09/20 10:08:41;;;;;;;4.47;3.05;;;21.60;99.90;;;;;;5034414;28;20036;-70
2023/09/20 10:11:08;;;;;;;5.75;3.65;;;21.60;99.90;;;;;;5033170;28;20024;-69
2023/09/20 10:13:35;;;;;;;3.40;3.10;;;21.70;99.90;;;;;;5034700;28;20030;-77
2023/09/20 10:16:10;;;;;;;6.90;4.00;;;21.70;99.90;;;;;;5005371;28;20022;-72
2023/09/20 10:19:10;;;;;;;7.28;3.17;;;21.70;99.90;;;;;;5009981;28;20017;-75
2023/09/20 10:21:58;;;;;;;7.80;4.40;;;21.70;99.90;;;;;;4987855;28;20036;-71
2023/09/20 10:24:28;;;;;;;8.57;4.47;;;21.60;99.90;;;;;;5006897;28;20092;-74
2023/09/20 10:26:57;;;;;;;6.72;4.05;;;21.60;99.90;;;;;;5014313;28;20049;-71
2023/09/20 10:29:26;;;;;;;6.70;3.78;;;21.50;99.90;;;;;;5014042;28;20018;-74
2023/09/20 10:32:13;;;;;;;9.90;3.45;;;21.50;99.90;;;;;;5013020;28;20456;-71
2023/09/20 10:34:40;;;;;;;6.50;3.33;;;21.50;99.90;;;;;;5013214;28;20022;-77
2023/09/20 10:37:10;;;;;;;8.27;2.72;;;21.50;99.90;;;;;;5011933;28;20057;-72
2023/09/20 10:39:38;;;;;;;5.72;2.70;;;21.50;99.90;;;;;;4994662;28;20026;-71
2023/09/20 10:42:12;;;;;;;6.38;2.97;;;21.50;99.90;;;;;;5008980;28;20029;-74
2023/09/20 10:44:41;;;;;;;6.80;2.30;;;21.60;99.90;;;;;;5003765;28;20018;-69
2023/09/20 10:47:19;;;;;;;5.78;2.30;;;21.60;99.90;;;;;;4999116;28;20041;-71
2023/09/20 10:49:55;;;;;;;4.85;2.03;;;21.60;99.90;;;;;;5020281;28;20041;-71
2023/09/20 10:52:33;;;;;;;5.40;1.90;;;21.60;99.90;;;;;;5005901;28;20060;-73
2023/09/20 10:55:22;;;;;;;10.98;2.05;;;21.60;99.90;;;;;;5007994;28;20034;-73
2023/09/20 10:57:49;;;;;;;4.60;2.00;;;21.60;99.90;;;;;;5013493;28;20527;-75
2023/09/20 11:00:22;;;;;;;4.80;2.10;;;21.60;99.90;;;;;;5020666;28;20034;-74
2023/09/20 11:02:52;;;;;;;4.28;1.73;;;21.60;99.90;;;;;;5010321;28;20032;-67
2023/09/20 11:05:18;;;;;;;4.10;1.90;;;21.60;99.90;;;;;;4999584;28;20613;-75
2023/09/20 11:07:46;;;;;;;8.90;2.15;;;21.60;99.90;;;;;;4997885;28;20049;-74
2023/09/20 11:10:19;;;;;;;8.48;2.03;;;21.60;99.90;;;;;;5000329;28;20022;-68
2023/09/20 11:12:45;;;;;;;6.90;2.20;;;21.70;99.90;;;;;;5006617;28;20460;-75
2023/09/20 11:15:14;;;;;;;5.32;2.10;;;21.70;99.90;;;;;;4999669;28;20029;-77
2023/09/20 11:17:40;;;;;;;6.75;1.88;;;21.70;99.90;;;;;;5001632;28;20027;-77
2023/09/20 11:20:11;;;;;;;12.05;2.30;;;21.70;99.90;;;;;;5010265;28;20056;-71
2023/09/20 11:22:37;;;;;;;8.40;2.35;;;21.70;99.90;;;;;;5010941;28;20483;-77
2023/09/20 11:25:04;;;;;;;7.53;2.00;;;21.70;99.90;;;;;;5009901;28;20036;-75
2023/09/20 11:27:34;;;;;;;5.88;2.35;;;21.70;99.90;;;;;;5010372;28;20038;-71
2023/09/20 11:30:11;;;;;;;5.25;2.00;;;21.70;99.90;;;;;;5010868;28;20475;-78
2023/09/20 11:32:39;;;;;;;8.50;2.25;;;21.80;99.90;;;;;;5007866;28;20471;-72
2023/09/20 11:35:07;;;;;;;6.38;2.28;;;21.80;99.90;;;;;;5011052;28;20059;-72
2023/09/20 11:37:35;;;;;;;10.85;1.88;;;21.70;99.90;;;;;;5003406;28;20546;-72
2023/09/20 11:40:01;;;;;;;4.30;1.65;;;21.80;99.90;;;;;;5006910;28;20053;-71
2023/09/20 11:42:30;;;;;;;5.72;2.17;;;21.80;99.90;;;;;;5009840;28;20052;-72
2023/09/20 11:45:16;;;;;;;5.03;2.00;;;21.80;99.90;;;;;;5000028;28;20033;-73
2023/09/20 11:47:42;;;;;;;7.78;1.85;;;21.80;99.90;;;;;;5001465;28;20034;-72
2023/09/20 11:50:14;;;;;;;5.35;2.13;;;21.80;99.90;;;;;;5003990;28;20479;-72
2023/09/20 11:52:48;;;;;;;6.05;1.70;;;21.90;99.90;;;;;;5003862;28;20029;-76
2023/09/20 11:55:15;;;;;;;6.00;2.28;;;21.90;99.90;;;;;;5005187;28;20025;-71
2023/09/20 11:57:42;;;;;;;7.85;1.80;;;21.90;99.90;;;;;;5010130;28;20014;-70
2023/09/20 12:00:14;;;;;;;5.80;2.03;;;21.90;99.90;;;;;;5011514;28;20033;-73
2023/09/20 12:02:40;;;;;;;6.50;1.83;;;21.90;99.90;;;;;;5008437;28;20125;-75
2023/09/20 12:05:07;;;;;;;5.30;2.00;;;21.90;99.90;;;;;;5006864;28;20037;-72
2023/09/20 12:07:34;;;;;;;5.10;1.80;;;21.90;99.90;;;;;;5013539;28;20046;-74
2023/09/20 12:10:02;;;;;;;4.65;1.85;;;21.90;99.90;;;;;;5000618;28;20026;-72
2023/09/20 12:12:31;;;;;;;3.88;1.30;;;21.90;99.90;;;;;;5000987;28;20525;-75
2023/09/20 12:14:57;;;;;;;5.95;1.83;;;22.00;99.90;;;;;;5004432;28;20026;-71
2023/09/20 12:17:23;;;;;;;4.35;1.55;;;22.00;99.90;;;;;;5006850;28;20034;-75
2023/09/20 12:19:48;;;;;;;3.72;1.45;;;22.00;99.90;;;;;;5003847;28;20335;-71
2023/09/20 12:22:14;;;;;;;4.05;1.90;;;22.00;99.90;;;;;;5002642;28;20101;-72
2023/09/20 12:24:39;;;;;;;4.15;1.35;;;22.00;99.90;;;;;;5006497;28;20026;-73
2023/09/20 12:27:05;;;;;;;3.17;1.33;;;22.00;99.90;;;;;;5009427;28;20049;-74
2023/09/20 12:29:31;;;;;;;3.53;1.33;;;22.00;99.90;;;;;;4994833;28;20030;-80
2023/09/20 12:31:57;;;;;;;2.85;1.50;;;22.00;99.90;;;;;;5006922;28;20034;-75
2023/09/20 12:34:23;;;;;;;3.25;1.15;;;22.10;99.90;;;;;;5009440;28;20102;-74
2023/09/20 12:36:49;;;;;;;2.42;1.05;;;22.00;99.90;;;;;;5003853;28;20061;-75
2023/09/20 12:39:16;;;;;;;3.45;1.50;;;22.10;99.90;;;;;;5002802;28;20423;-75
2023/09/20 12:41:42;;;;;;;3.42;1.35;;;22.10;99.90;;;;;;5000777;28;20038;-71
2023/09/20 12:44:09;;;;;;;4.40;1.25;;;22.10;99.90;;;;;;5003698;28;20026;-78
2023/09/20 12:46:37;;;;;;;3.28;1.52;;;22.10;99.90;;;;;;5009658;28;20037;-71
2023/09/20 12:49:06;;;;;;;4.72;1.52;;;22.20;99.90;;;;;;5006626;28;20033;-71
2023/09/20 12:51:32;;;;;;;3.58;1.23;;;22.20;99.90;;;;;;5001539;28;20057;-78
2023/09/20 12:53:59;;;;;;;3.22;1.30;;;22.20;99.90;;;;;;5003900;28;20536;-70
2023/09/20 12:56:24;;;;;;;3.65;1.63;;;22.20;99.90;;;;;;5004548;28;20698;-72
2023/09/20 12:58:52;;;;;;;3.40;1.40;;;22.20;99.90;;;;;;5003412;28;20030;-71
2023/09/20 13:01:17;;;;;;;4.47;1.77;;;22.20;99.90;;;;;;5013220;28;20117;-73
2023/09/20 13:03:43;;;;;;;1.90;1.30;;;22.20;99.90;;;;;;5005333;28;20105;-75
2023/09/20 13:06:13;;;;;;;5.13;1.20;;;22.20;99.90;;;;;;5004832;28;20459;-70
2023/09/20 13:08:42;;;;;;;3.45;1.42;;;22.30;99.90;;;;;;5012234;28;20029;-75
2023/09/20 13:11:10;;;;;;;4.07;1.40;;;22.30;99.90;;;;;;5008335;28;20113;-73
2023/09/20 13:13:41;;;;;;;5.22;1.50;;;22.30;99.90;;;;;;5011400;28;20029;-73
2023/09/20 13:16:09;;;;;;;4.35;1.55;;;22.30;99.90;;;;;;5011889;28;20426;-70
2023/09/20 13:18:36;;;;;;;4.03;1.40;;;22.30;99.90;;;;;;5013748;28;20083;-71
2023/09/20 13:21:04;;;;;;;3.35;1.55;;;22.30;99.90;;;;;;5009241;28;20105;-74
2023/09/20 13:23:30;;;;;;;4.93;1.38;;;22.30;99.90;;;;;;5003945;28;20099;-70
2023/09/20 13:25:56;;;;;;;4.13;1.45;;;22.30;99.90;;;;;;5012674;28;20038;-71
2023/09/20 13:28:22;;;;;;;3.30;1.30;;;22.40;99.80;;;;;;5011751;28;20375;-71
2023/09/20 13:30:47;;;;;;;4.93;1.58;;;22.40;99.80;;;;;;5009629;28;20092;-76